Berea, Ohio
Current Conditions -  °F | °C
As of 8:20 PM on Tuesday 21 Oct 2014 (Local Time) from KCLE Reporting Station
Light Rain Light Rain  
Wind Chill: 41°   Ceiling: 1800
Heat Index: 47°   Visibility: 8mi
Dew Point: 44°   Wind: 14mph
Humidity: 90%   Direction: 360°N
Pressure: 30.09"   Gusts: NA
Location:  41.37°N, 81.85°W
Report Text: KCLE 220020Z 36012KT 8SM -RA SCT012 BKN018 OVC023 08/07 A3009 RMK AO2 P0003 T00830067 $
Loading
Personal Weather Stations






























Interactive Weather Map
Tropical Storm Tracking
New forecast layout! Learn more

10-Day Weather Forecast

Advertisements
Track Severe Weather on mobile